createdAt,value
2023-02-05T00:00:51.572Z,-1.30
2023-02-05T00:02:02.320Z,-1.30
2023-02-05T00:02:57.597Z,-1.30
2023-02-05T00:06:48.291Z,-1.30
2023-02-05T00:07:47.528Z,-1.30
2023-02-05T00:08:44.276Z,-1.28
2023-02-05T00:09:41.086Z,-1.31
2023-02-05T00:10:46.353Z,-1.31
2023-02-05T00:11:41.791Z,-1.33
2023-02-05T00:12:47.169Z,-1.33
2023-02-05T00:13:44.520Z,-1.31
2023-02-05T00:16:09.734Z,-1.31
2023-02-05T00:16:56.472Z,-1.35
2023-02-05T00:17:55.498Z,-1.35
2023-02-05T00:18:55.663Z,-1.35
2023-02-05T00:19:56.789Z,-1.35
2023-02-05T00:20:54.133Z,-1.38
2023-02-05T00:21:53.644Z,-1.39
2023-02-05T00:22:58.510Z,-1.42
2023-02-05T00:23:55.712Z,-1.46
2023-02-05T00:24:58.782Z,-1.49
2023-02-05T00:25:57.608Z,-1.48
2023-02-05T00:26:53.554Z,-1.49
2023-02-05T00:27:59.185Z,-1.49
2023-02-05T00:28:56.048Z,-1.49
2023-02-05T00:29:55.928Z,-1.49
2023-02-05T00:30:55.874Z,-1.54
2023-02-05T00:32:02.061Z,-1.54
2023-02-05T00:32:58.151Z,-1.56
2023-02-05T00:33:58.391Z,-1.56
2023-02-05T00:34:58.552Z,-1.57
2023-02-05T00:35:56.917Z,-1.60
2023-02-05T00:36:59.703Z,-1.62
2023-02-05T00:37:59.103Z,-1.59
2023-02-05T00:38:53.716Z,-1.59
2023-02-05T00:39:58.818Z,-1.56
2023-02-05T00:40:59.179Z,-1.54
2023-02-05T00:41:58.662Z,-1.51
2023-02-05T00:42:54.684Z,-1.49
2023-02-05T00:43:57.209Z,-1.48
2023-02-05T00:44:56.250Z,-1.48
2023-02-05T00:46:01.440Z,-1.48
2023-02-05T00:46:59.736Z,-1.46
2023-02-05T00:48:01.428Z,-1.43
2023-02-05T00:48:56.111Z,-1.45
2023-02-05T00:49:58.636Z,-1.45
2023-02-05T00:50:55.676Z,-1.43
2023-02-05T00:51:57.964Z,-1.43
2023-02-05T00:52:57.464Z,-1.43
2023-02-05T00:53:57.205Z,-1.43
2023-02-05T00:54:52.953Z,-1.42
2023-02-05T00:56:00.140Z,-1.38
2023-02-05T00:56:54.685Z,-1.41
2023-02-05T00:57:52.003Z,-1.41
2023-02-05T00:58:55.772Z,-1.42
2023-02-05T00:59:54.645Z,-1.43
2023-02-05T01:00:58.872Z,-1.45
2023-02-05T01:01:57.068Z,-1.45
2023-02-05T01:02:58.926Z,-1.45
2023-02-05T01:03:55.342Z,-1.43
2023-02-05T01:04:52.644Z,-1.45
2023-02-05T01:06:03.072Z,-1.43
2023-02-05T01:06:59.457Z,-1.43
2023-02-05T01:07:54.989Z,-1.42
2023-02-05T01:08:57.113Z,-1.42
2023-02-05T01:09:57.395Z,-1.43
2023-02-05T01:11:00.558Z,-1.43
2023-02-05T01:11:53.658Z,-1.45
2023-02-05T01:12:53.770Z,-1.45
2023-02-05T01:13:56.121Z,-1.46
2023-02-05T01:14:52.239Z,-1.51
2023-02-05T01:15:54.941Z,-1.53
2023-02-05T01:16:53.308Z,-1.54
2023-02-05T01:17:53.556Z,-1.56
2023-02-05T01:18:52.564Z,-1.54
2023-02-05T01:19:52.133Z,-1.54
2023-02-05T01:20:52.200Z,-1.56
2023-02-05T01:21:53.145Z,-1.57
2023-02-05T01:22:54.098Z,-1.57
2023-02-05T01:23:53.266Z,-1.57
2023-02-05T01:24:58.033Z,-1.59
2023-02-05T01:26:12.218Z,-1.57
2023-02-05T01:26:52.135Z,-1.59
2023-02-05T01:27:52.496Z,-1.60
2023-02-05T01:28:53.034Z,-1.62
2023-02-05T01:29:51.396Z,-1.62
2023-02-05T01:30:54.352Z,-1.63
2023-02-05T01:31:55.042Z,-1.64
2023-02-05T01:32:55.577Z,-1.64
2023-02-05T01:33:52.631Z,-1.64
2023-02-05T01:34:53.769Z,-1.64
2023-02-05T01:35:51.445Z,-1.64
2023-02-05T01:36:52.937Z,-1.63
2023-02-05T01:37:51.062Z,-1.64
2023-02-05T01:38:53.257Z,-1.62
2023-02-05T01:39:53.283Z,-1.62
2023-02-05T01:40:53.870Z,-1.62
2023-02-05T01:42:14.313Z,-1.60
2023-02-05T01:42:53.148Z,-1.60
2023-02-05T01:43:53.140Z,-1.62
2023-02-05T01:45:02.237Z,-1.62
2023-02-05T01:47:27.873Z,-1.60
2023-02-05T01:48:22.605Z,-1.63
2023-02-05T01:49:22.577Z,-1.62
2023-02-05T01:50:20.845Z,-1.62
2023-02-05T01:51:41.407Z,-1.64
2023-02-05T01:53:33.790Z,-1.63
2023-02-05T01:54:27.506Z,-1.66
2023-02-05T01:55:27.567Z,-1.67
2023-02-05T01:56:27.130Z,-1.66
2023-02-05T01:57:27.342Z,-1.66
2023-02-05T01:58:27.295Z,-1.67
2023-02-05T01:59:27.546Z,-1.69
2023-02-05T02:00:27.730Z,-1.70
2023-02-05T02:01:27.275Z,-1.72
2023-02-05T02:02:28.665Z,-1.74
2023-02-05T02:05:07.072Z,-1.74
2023-02-05T02:05:54.910Z,-1.75
2023-02-05T02:06:56.905Z,-1.74
2023-02-05T02:07:58.127Z,-1.74
2023-02-05T02:08:53.251Z,-1.74
2023-02-05T02:09:53.260Z,-1.75
2023-02-05T02:10:53.250Z,-1.75
2023-02-05T02:11:53.652Z,-1.80
2023-02-05T02:12:53.073Z,-1.78
2023-02-05T02:13:53.150Z,-1.77
2023-02-05T02:14:54.090Z,-1.78
2023-02-05T02:15:53.211Z,-1.78
2023-02-05T02:16:55.775Z,-1.80
2023-02-05T02:17:56.982Z,-1.78
2023-02-05T02:20:22.799Z,-1.77
2023-02-05T02:21:22.161Z,-1.80
2023-02-05T02:22:20.697Z,-1.81
2023-02-05T02:23:21.932Z,-1.81
2023-02-05T02:24:23.029Z,-1.80
2023-02-05T02:25:25.124Z,-1.78
2023-02-05T02:26:20.779Z,-1.77
2023-02-05T02:27:20.793Z,-1.75
2023-02-05T02:28:22.233Z,-1.75
2023-02-05T02:29:22.679Z,-1.75
2023-02-05T02:30:21.645Z,-1.74
2023-02-05T02:31:21.999Z,-1.74
2023-02-05T02:32:24.058Z,-1.77
2023-02-05T02:33:24.132Z,-1.74
2023-02-05T02:34:20.497Z,-1.75
2023-02-05T02:35:21.824Z,-1.75
2023-02-05T02:36:25.197Z,-1.75
2023-02-05T02:37:21.611Z,-1.77
2023-02-05T02:38:21.378Z,-1.78
2023-02-05T02:39:20.380Z,-1.80
2023-02-05T02:40:21.678Z,-1.81
2023-02-05T02:41:21.516Z,-1.84
2023-02-05T02:42:20.700Z,-1.85
2023-02-05T02:43:23.130Z,-1.87
2023-02-05T02:44:34.505Z,-1.88
2023-02-05T02:45:20.726Z,-1.90
2023-02-05T02:46:22.516Z,-1.90
2023-02-05T02:47:21.394Z,-1.90
2023-02-05T02:48:20.120Z,-1.87
2023-02-05T02:49:20.300Z,-1.88
2023-02-05T02:50:20.776Z,-1.88
2023-02-05T02:51:23.390Z,-1.87
2023-02-05T02:52:21.766Z,-1.87
2023-02-05T02:53:22.604Z,-1.85
2023-02-05T02:54:20.689Z,-1.85
2023-02-05T02:55:24.573Z,-1.82
2023-02-05T02:56:20.603Z,-1.80
2023-02-05T02:57:21.180Z,-1.80
2023-02-05T02:58:23.541Z,-1.78
2023-02-05T02:59:23.605Z,-1.75
2023-02-05T03:00:45.433Z,-1.74
2023-02-05T03:01:21.940Z,-1.70
2023-02-05T03:02:23.300Z,-1.70
2023-02-05T03:03:22.477Z,-1.69
2023-02-05T03:04:22.686Z,-1.67
2023-02-05T03:05:21.790Z,-1.64
2023-02-05T03:06:22.574Z,-1.64
2023-02-05T03:08:58.452Z,-1.57
2023-02-05T03:09:36.513Z,-1.54
2023-02-05T03:10:38.938Z,-1.54
2023-02-05T03:11:36.422Z,-1.53
2023-02-05T03:12:43.760Z,-1.51
2023-02-05T03:13:36.582Z,-1.48
2023-02-05T03:14:35.849Z,-1.45
2023-02-05T03:15:37.650Z,-1.46
2023-02-05T03:16:37.244Z,-1.43
2023-02-05T03:17:37.370Z,-1.42
2023-02-05T03:18:34.270Z,-1.42
2023-02-05T03:19:34.210Z,-1.41
2023-02-05T03:20:34.193Z,-1.38
2023-02-05T03:21:34.308Z,-1.35
2023-02-05T03:22:34.727Z,-1.33
2023-02-05T03:23:34.453Z,-1.30
2023-02-05T03:24:36.772Z,-1.30
2023-02-05T03:25:36.856Z,-1.25
2023-02-05T03:26:37.912Z,-1.21
2023-02-05T03:27:36.072Z,-1.20
2023-02-05T03:28:35.501Z,-1.15
2023-02-05T03:29:35.005Z,-1.15
2023-02-05T03:30:37.768Z,-1.10
2023-02-05T03:31:35.004Z,-1.09
2023-02-05T03:32:36.286Z,-1.07
2023-02-05T03:33:36.080Z,-1.07
2023-02-05T03:34:34.394Z,-1.05
2023-02-05T03:35:35.589Z,-1.03
2023-02-05T03:36:38.312Z,-1.02
2023-02-05T03:37:35.672Z,-0.99
2023-02-05T03:38:40.700Z,-0.99
2023-02-05T03:39:36.104Z,-0.99
2023-02-05T03:40:36.478Z,-0.99
2023-02-05T03:41:35.621Z,-0.99
2023-02-05T03:42:34.931Z,-0.97
2023-02-05T03:43:34.730Z,-0.97
2023-02-05T03:44:37.076Z,-0.97
2023-02-05T03:45:35.556Z,-0.97
2023-02-05T03:46:40.914Z,-0.95
2023-02-05T03:47:39.758Z,-0.94
2023-02-05T03:48:40.779Z,-0.94
2023-02-05T03:49:38.142Z,-0.92
2023-02-05T03:50:34.912Z,-0.91
2023-02-05T03:51:35.144Z,-0.92
2023-02-05T03:52:37.888Z,-0.92
2023-02-05T03:53:43.514Z,-0.94
2023-02-05T03:54:38.339Z,-0.92
2023-02-05T03:55:35.727Z,-0.92
2023-02-05T03:56:36.908Z,-0.94
2023-02-05T03:57:39.411Z,-0.92
2023-02-05T03:58:38.480Z,-0.91
2023-02-05T03:59:41.147Z,-0.92
2023-02-05T04:00:35.085Z,-0.91
2023-02-05T04:01:37.201Z,-0.91
2023-02-05T04:02:42.288Z,-0.94
2023-02-05T04:03:36.622Z,-0.92
2023-02-05T04:04:38.172Z,-0.95
2023-02-05T04:05:38.596Z,-0.95
2023-02-05T04:06:38.230Z,-0.97
2023-02-05T04:07:35.379Z,-0.99
2023-02-05T04:08:36.795Z,-0.97
2023-02-05T04:09:36.289Z,-0.97
2023-02-05T04:10:38.157Z,-0.97
2023-02-05T04:11:39.645Z,-1.00
2023-02-05T04:12:40.132Z,-0.99
2023-02-05T04:13:44.998Z,-0.99
2023-02-05T04:14:39.151Z,-1.02
2023-02-05T04:16:13.749Z,-1.02
2023-02-05T04:16:34.335Z,-1.02
2023-02-05T04:17:36.279Z,-1.02
2023-02-05T04:18:34.553Z,-1.02
2023-02-05T04:19:33.684Z,-1.03
2023-02-05T04:20:35.200Z,-1.03
2023-02-05T04:21:36.806Z,-1.06
2023-02-05T04:22:33.873Z,-1.05
2023-02-05T04:23:34.038Z,-1.06
2023-02-05T04:24:34.827Z,-1.06
2023-02-05T04:25:34.124Z,-1.06
2023-02-05T04:26:36.293Z,-1.07
2023-02-05T04:27:35.186Z,-1.09
2023-02-05T04:28:34.244Z,-1.12
2023-02-05T04:29:34.517Z,-1.09
2023-02-05T04:30:34.527Z,-1.10
2023-02-05T04:31:35.787Z,-1.10
2023-02-05T04:32:34.466Z,-1.12
2023-02-05T04:33:35.483Z,-1.13
2023-02-05T04:34:33.805Z,-1.17
2023-02-05T04:35:36.597Z,-1.18
2023-02-05T04:36:35.016Z,-1.20
2023-02-05T04:37:35.167Z,-1.23
2023-02-05T04:38:33.941Z,-1.24
2023-02-05T04:40:01.777Z,-1.27
2023-02-05T04:40:39.690Z,-1.27
2023-02-05T04:41:33.361Z,-1.30
2023-02-05T04:42:33.818Z,-1.31
2023-02-05T04:43:33.329Z,-1.31
2023-02-05T04:44:34.772Z,-1.30
2023-02-05T04:46:00.910Z,-1.31
2023-02-05T04:46:33.867Z,-1.30
2023-02-05T04:47:35.697Z,-1.31
2023-02-05T04:48:33.455Z,-1.31
2023-02-05T04:49:35.116Z,-1.31
2023-02-05T04:50:34.093Z,-1.30
2023-02-05T04:51:35.086Z,-1.30
2023-02-05T04:52:33.233Z,-1.30
2023-02-05T04:53:38.622Z,-1.28
2023-02-05T04:54:33.284Z,-1.27
2023-02-05T04:55:35.171Z,-1.24
2023-02-05T04:56:34.694Z,-1.24
2023-02-05T04:57:33.956Z,-1.24
2023-02-05T04:58:34.802Z,-1.20
2023-02-05T04:59:33.476Z,-1.20
2023-02-05T05:00:35.498Z,-1.18
2023-02-05T05:01:33.304Z,-1.17
2023-02-05T05:02:36.108Z,-1.12
2023-02-05T05:03:33.376Z,-1.12
2023-02-05T05:04:35.395Z,-1.09
2023-02-05T05:05:35.419Z,-1.06
2023-02-05T05:06:35.281Z,-1.05
2023-02-05T05:07:33.807Z,-1.05
2023-02-05T05:08:33.125Z,-1.00
2023-02-05T05:09:33.604Z,-1.00
2023-02-05T05:10:34.033Z,-1.00
2023-02-05T05:11:34.197Z,-0.99
2023-02-05T05:12:34.197Z,-0.99
2023-02-05T05:13:35.300Z,-0.95
2023-02-05T05:14:34.570Z,-0.94
2023-02-05T05:15:37.743Z,-0.95
2023-02-05T05:16:35.808Z,-0.92
2023-02-05T05:17:32.951Z,-0.92
2023-02-05T05:18:32.951Z,-0.91
2023-02-05T05:19:35.400Z,-0.87
2023-02-05T05:20:33.682Z,-0.86
2023-02-05T05:23:01.823Z,-0.81
2023-02-05T05:23:56.965Z,-0.81
2023-02-05T05:24:58.541Z,-0.80
2023-02-05T05:25:58.292Z,-0.77
2023-02-05T05:27:00.224Z,-0.75
2023-02-05T05:27:55.568Z,-0.75
2023-02-05T05:28:59.040Z,-0.73
2023-02-05T05:29:57.824Z,-0.72
2023-02-05T05:30:58.842Z,-0.70
2023-02-05T05:31:57.377Z,-0.70
2023-02-05T05:32:58.851Z,-0.69
2023-02-05T05:33:56.325Z,-0.69
2023-02-05T05:34:55.848Z,-0.68
2023-02-05T05:35:56.674Z,-0.68
2023-02-05T05:36:57.466Z,-0.69
2023-02-05T05:37:58.421Z,-0.68
2023-02-05T05:38:56.066Z,-0.66
2023-02-05T05:39:56.069Z,-0.68
2023-02-05T05:40:59.025Z,-0.68
2023-02-05T05:42:20.182Z,-0.68
2023-02-05T05:42:58.122Z,-0.66
2023-02-05T05:43:58.753Z,-0.66
2023-02-05T05:44:56.614Z,-0.68
2023-02-05T05:45:55.393Z,-0.66
2023-02-05T05:46:57.477Z,-0.66
2023-02-05T05:47:57.133Z,-0.66
2023-02-05T05:48:56.698Z,-0.66
2023-02-05T05:49:56.171Z,-0.65
2023-02-05T05:50:57.421Z,-0.65
2023-02-05T05:51:58.597Z,-0.66
2023-02-05T05:52:55.553Z,-0.66
2023-02-05T05:53:58.522Z,-0.65
2023-02-05T05:54:56.831Z,-0.65
2023-02-05T05:55:56.589Z,-0.65
2023-02-05T05:56:58.126Z,-0.63
2023-02-05T05:57:58.806Z,-0.63
2023-02-05T05:58:57.632Z,-0.65
2023-02-05T06:00:00.679Z,-0.65
2023-02-05T06:00:56.757Z,-0.63
2023-02-05T06:01:56.662Z,-0.63
2023-02-05T06:02:56.610Z,-0.62
2023-02-05T06:04:30.870Z,-0.62
2023-02-05T06:05:00.614Z,-0.60
2023-02-05T06:05:55.637Z,-0.60
2023-02-05T06:06:57.847Z,-0.60
2023-02-05T06:07:55.389Z,-0.59
2023-02-05T06:08:55.210Z,-0.59
2023-02-05T06:09:59.688Z,-0.59
2023-02-05T06:11:00.234Z,-0.59
2023-02-05T06:12:01.318Z,-0.57
2023-02-05T06:13:00.671Z,-0.55
2023-02-05T06:14:00.166Z,-0.55
2023-02-05T06:14:57.743Z,-0.55
2023-02-05T06:15:59.843Z,-0.55
2023-02-05T06:17:10.060Z,-0.54
2023-02-05T06:17:58.602Z,-0.55
2023-02-05T06:19:19.046Z,-0.54
2023-02-05T06:19:57.197Z,-0.54
2023-02-05T06:20:58.270Z,-0.55
2023-02-05T06:21:58.595Z,-0.54
2023-02-05T06:22:59.330Z,-0.54
2023-02-05T06:23:58.314Z,-0.52
2023-02-05T06:25:07.401Z,-0.54
2023-02-05T06:25:57.533Z,-0.52
2023-02-05T06:31:16.655Z,-0.48
2023-02-05T06:32:14.576Z,-0.50
2023-02-05T06:33:14.556Z,-0.50
2023-02-05T06:34:14.710Z,-0.48
2023-02-05T06:35:14.596Z,-0.48
2023-02-05T06:36:14.497Z,-0.50
2023-02-05T06:37:14.511Z,-0.48
2023-02-05T06:38:14.605Z,-0.48
2023-02-05T06:39:14.543Z,-0.45
2023-02-05T06:40:14.494Z,-0.45
2023-02-05T06:41:14.423Z,-0.44
2023-02-05T06:42:14.612Z,-0.44
2023-02-05T06:43:14.446Z,-0.44
2023-02-05T06:44:15.872Z,-0.42
2023-02-05T06:45:14.545Z,-0.42
2023-02-05T06:46:15.039Z,-0.41
2023-02-05T06:47:14.656Z,-0.41
2023-02-05T06:48:14.558Z,-0.39
2023-02-05T06:49:14.471Z,-0.37
2023-02-05T06:50:16.157Z,-0.33
2023-02-05T06:51:14.391Z,-0.33
2023-02-05T06:52:14.392Z,-0.33
2023-02-05T06:53:14.286Z,-0.31
2023-02-05T06:54:14.395Z,-0.30
2023-02-05T06:55:15.828Z,-0.30
2023-02-05T06:56:15.863Z,-0.30
2023-02-05T06:57:14.323Z,-0.30
2023-02-05T06:58:14.232Z,-0.30
2023-02-05T06:59:14.457Z,-0.30
2023-02-05T07:00:14.234Z,-0.30
2023-02-05T07:01:14.261Z,-0.30
2023-02-05T07:02:14.163Z,-0.31
2023-02-05T07:03:14.295Z,-0.30
2023-02-05T07:04:14.198Z,-0.29
2023-02-05T07:05:14.069Z,-0.31
2023-02-05T07:06:14.092Z,-0.31
2023-02-05T07:07:14.089Z,-0.31
2023-02-05T07:08:14.111Z,-0.33
2023-02-05T07:09:14.213Z,-0.33
2023-02-05T07:10:14.101Z,-0.33
2023-02-05T07:11:14.234Z,-0.34
2023-02-05T07:12:14.034Z,-0.33
2023-02-05T07:13:14.129Z,-0.34
2023-02-05T07:14:14.333Z,-0.34
2023-02-05T07:15:14.045Z,-0.34
2023-02-05T07:16:14.016Z,-0.34
2023-02-05T07:17:13.948Z,-0.34
2023-02-05T07:18:13.950Z,-0.34
2023-02-05T07:19:13.971Z,-0.36
2023-02-05T07:20:13.956Z,-0.34
2023-02-05T07:21:13.885Z,-0.36
2023-02-05T07:22:14.188Z,-0.34
2023-02-05T07:23:14.096Z,-0.33
2023-02-05T07:24:13.790Z,-0.34
2023-02-05T07:25:13.806Z,-0.34
2023-02-05T07:26:13.894Z,-0.33
2023-02-05T07:27:13.973Z,-0.31
2023-02-05T07:28:14.074Z,-0.30
2023-02-05T07:29:13.852Z,-0.30
2023-02-05T07:30:13.769Z,-0.29
2023-02-05T07:31:13.937Z,-0.26
2023-02-05T07:32:13.770Z,-0.26
2023-02-05T07:33:13.771Z,-0.23
2023-02-05T07:34:13.866Z,-0.23
2023-02-05T07:35:17.939Z,-0.22
2023-02-05T07:36:13.780Z,-0.22
2023-02-05T07:37:17.511Z,-0.22
2023-02-05T07:38:15.491Z,-0.19
2023-02-05T07:39:14.426Z,-0.19
2023-02-05T07:40:20.660Z,-0.15
2023-02-05T07:41:24.094Z,-0.15
2023-02-05T07:42:22.568Z,-0.12
2023-02-05T07:43:22.688Z,-0.11
2023-02-05T07:44:25.277Z,-0.11
2023-02-05T07:45:22.158Z,-0.09
2023-02-05T07:46:25.822Z,-0.09
2023-02-05T07:47:20.471Z,-0.08
2023-02-05T07:48:26.247Z,-0.06
2023-02-05T07:49:22.716Z,-0.06
2023-02-05T07:50:23.313Z,-0.05
2023-02-05T07:51:15.302Z,-0.05
2023-02-05T07:52:21.013Z,-0.01
2023-02-05T07:53:21.969Z,-0.01
2023-02-05T07:54:14.633Z,0.00
2023-02-05T07:55:13.510Z,0.00
2023-02-05T07:56:13.545Z,0.00
2023-02-05T07:57:25.795Z,0.00
2023-02-05T07:58:18.172Z,0.02
2023-02-05T07:59:23.502Z,0.03
2023-02-05T08:00:21.098Z,0.06
2023-02-05T08:01:13.394Z,0.07
2023-02-05T08:02:13.536Z,0.06
2023-02-05T08:03:13.362Z,0.07
2023-02-05T08:04:13.520Z,0.06
2023-02-05T08:05:13.483Z,0.07
2023-02-05T08:06:20.335Z,0.07
2023-02-05T08:07:17.778Z,0.07
2023-02-05T08:08:21.384Z,0.07
2023-02-05T08:09:16.529Z,0.09
2023-02-05T08:10:26.732Z,0.10
2023-02-05T08:11:21.710Z,0.12
2023-02-05T08:12:16.032Z,0.13
2023-02-05T08:14:54.465Z,0.20
2023-02-05T08:15:50.449Z,0.18
2023-02-05T08:16:59.875Z,0.18
2023-02-05T08:17:56.228Z,0.16
2023-02-05T08:18:53.516Z,0.21
2023-02-05T08:19:51.470Z,0.21
2023-02-05T08:20:54.963Z,0.24
2023-02-05T08:21:55.011Z,0.25
2023-02-05T08:22:50.899Z,0.25
2023-02-05T08:23:48.032Z,0.25
2023-02-05T08:24:48.112Z,0.27
2023-02-05T08:25:48.027Z,0.28
2023-02-05T08:26:48.128Z,0.31
2023-02-05T08:27:48.088Z,0.33
2023-02-05T08:28:48.051Z,0.36
2023-02-05T08:29:47.946Z,0.39
2023-02-05T08:30:47.991Z,0.39
2023-02-05T08:31:47.995Z,0.41
2023-02-05T08:32:47.882Z,0.41
2023-02-05T08:33:48.121Z,0.41
2023-02-05T08:34:47.872Z,0.42
2023-02-05T08:35:47.915Z,0.42
2023-02-05T08:36:52.911Z,0.42
2023-02-05T08:37:50.736Z,0.45
2023-02-05T08:38:51.807Z,0.46
2023-02-05T08:39:51.031Z,0.48
2023-02-05T08:40:51.470Z,0.49
2023-02-05T08:41:50.072Z,0.49
2023-02-05T08:42:54.679Z,0.53
2023-02-05T08:43:49.580Z,0.57
2023-02-05T08:44:52.778Z,0.58
2023-02-05T08:45:50.580Z,0.60
2023-02-05T08:46:51.689Z,0.61
2023-02-05T08:47:49.186Z,0.65
2023-02-05T08:48:53.096Z,0.67
2023-02-05T08:49:51.453Z,0.68
2023-02-05T08:50:50.880Z,0.71
2023-02-05T08:51:48.955Z,0.70
2023-02-05T08:52:51.691Z,0.72
2023-02-05T08:53:49.906Z,0.79
2023-02-05T08:54:50.287Z,0.80
2023-02-05T08:55:51.687Z,0.82
2023-02-05T08:56:50.152Z,0.83
2023-02-05T08:57:51.935Z,0.86
2023-02-05T08:58:49.336Z,0.89
2023-02-05T08:59:50.420Z,0.90
2023-02-05T09:00:50.126Z,0.94
2023-02-05T09:01:50.729Z,0.97
2023-02-05T09:02:51.368Z,1.03
2023-02-05T09:03:47.989Z,1.06
2023-02-05T09:04:50.215Z,1.10
2023-02-05T09:05:48.814Z,1.14
2023-02-05T09:06:48.884Z,1.15
2023-02-05T09:07:49.038Z,1.18
2023-02-05T09:08:48.006Z,1.22
2023-02-05T09:09:49.205Z,1.21
2023-02-05T09:10:48.836Z,1.22
2023-02-05T09:11:51.273Z,1.25
2023-02-05T09:12:51.183Z,1.26
2023-02-05T09:13:48.677Z,1.26
2023-02-05T09:14:49.252Z,1.32
2023-02-05T09:15:52.095Z,1.34
2023-02-05T09:16:50.146Z,1.37
2023-02-05T09:17:50.881Z,1.42
2023-02-05T09:18:48.868Z,1.43
2023-02-05T09:19:48.628Z,1.46
2023-02-05T09:20:49.077Z,1.51
2023-02-05T09:21:48.526Z,1.55
2023-02-05T09:22:49.008Z,1.57
2023-02-05T09:23:49.286Z,1.55
2023-02-05T09:24:49.024Z,1.51
2023-02-05T09:25:48.840Z,1.50
2023-02-05T09:26:48.044Z,1.50
2023-02-05T09:27:48.908Z,1.50
2023-02-05T09:28:49.559Z,1.50
2023-02-05T09:29:48.607Z,1.54
2023-02-05T09:30:48.214Z,1.57
2023-02-05T09:31:48.344Z,1.58
2023-02-05T09:32:48.270Z,1.61
2023-02-05T09:33:47.438Z,1.62
2023-02-05T09:34:49.150Z,1.62
2023-02-05T09:35:47.634Z,1.58
2023-02-05T09:36:48.144Z,1.58
2023-02-05T09:37:47.911Z,1.60
2023-02-05T09:38:48.227Z,1.61
2023-02-05T09:40:50.338Z,1.64
2023-02-05T09:41:48.639Z,1.65
2023-02-05T09:42:49.994Z,1.69
2023-02-05T09:43:47.592Z,1.71
2023-02-05T09:44:48.249Z,1.72
2023-02-05T09:45:50.554Z,1.75
2023-02-05T09:46:48.544Z,1.79
2023-02-05T09:47:49.598Z,1.79
2023-02-05T09:48:48.265Z,1.79
2023-02-05T09:49:47.262Z,1.80
2023-02-05T09:50:48.145Z,1.83
2023-02-05T09:51:50.253Z,1.89
2023-02-05T09:52:48.515Z,1.90
2023-02-05T09:53:55.568Z,1.87
2023-02-05T09:54:47.273Z,1.87
2023-02-05T09:55:46.978Z,1.83
2023-02-05T09:56:48.734Z,1.87
2023-02-05T09:57:48.133Z,1.87
2023-02-05T09:58:49.789Z,1.85
2023-02-05T09:59:48.889Z,1.87
2023-02-05T10:00:48.313Z,1.87
2023-02-05T10:01:47.339Z,1.91
2023-02-05T10:02:47.523Z,1.89
2023-02-05T10:03:47.666Z,1.83
2023-02-05T10:04:50.097Z,1.83
2023-02-05T10:07:52.535Z,1.90
2023-02-05T10:08:37.863Z,1.94
2023-02-05T10:09:38.702Z,2.01
2023-02-05T10:10:35.738Z,2.06
2023-02-05T10:11:38.280Z,2.09
2023-02-05T10:12:36.770Z,2.13
2023-02-05T10:13:36.671Z,2.15
2023-02-05T10:14:39.873Z,2.16
2023-02-05T10:15:37.129Z,2.17
2023-02-05T10:16:36.675Z,2.19
2023-02-05T10:17:36.463Z,2.16
2023-02-05T10:18:38.096Z,2.16
2023-02-05T10:19:36.962Z,2.19
2023-02-05T10:20:35.903Z,2.19
2023-02-05T10:21:36.363Z,2.19
2023-02-05T10:22:35.710Z,2.26
2023-02-05T10:23:35.780Z,2.23
2023-02-05T10:24:37.017Z,2.27
2023-02-05T10:25:58.311Z,2.26
2023-02-05T10:26:36.921Z,2.28
2023-02-05T10:27:35.495Z,2.34
2023-02-05T10:28:36.810Z,2.37
2023-02-05T10:29:35.472Z,2.41
2023-02-05T10:30:38.002Z,2.51
2023-02-05T10:31:36.950Z,2.56
2023-02-05T10:32:58.082Z,2.59
2023-02-05T10:33:35.925Z,2.63
2023-02-05T10:34:36.942Z,2.66
2023-02-05T10:35:36.196Z,2.64
2023-02-05T10:36:39.759Z,2.61
2023-02-05T10:37:36.912Z,2.56
2023-02-05T10:38:38.714Z,2.51
2023-02-05T10:39:41.825Z,2.51
2023-02-05T10:40:35.781Z,2.52
2023-02-05T10:41:36.178Z,2.53
2023-02-05T10:42:35.954Z,2.53
2023-02-05T10:43:37.560Z,2.49
2023-02-05T10:44:39.471Z,2.53
2023-02-05T10:45:37.206Z,2.53
2023-02-05T10:46:37.997Z,2.52
2023-02-05T10:47:39.632Z,2.55
2023-02-05T10:48:36.271Z,2.52
2023-02-05T10:49:36.974Z,2.48
2023-02-05T10:50:36.369Z,2.49
2023-02-05T10:51:36.172Z,2.52
2023-02-05T10:52:39.650Z,2.53
2023-02-05T10:53:35.082Z,2.58
2023-02-05T10:54:37.130Z,2.63
2023-02-05T10:55:39.538Z,2.64
2023-02-05T10:56:53.112Z,2.67
2023-02-05T10:57:37.381Z,2.73
2023-02-05T10:58:39.854Z,2.82
2023-02-05T10:59:37.433Z,2.85
2023-02-05T11:00:36.355Z,2.89
2023-02-05T11:01:36.613Z,2.95
2023-02-05T11:02:39.246Z,3.00
2023-02-05T11:03:36.601Z,3.10
2023-02-05T11:04:39.002Z,3.16
2023-02-05T11:05:39.049Z,3.21
2023-02-05T11:06:36.961Z,3.28
2023-02-05T11:07:39.456Z,3.33
2023-02-05T11:09:20.038Z,3.39
2023-02-05T11:09:36.126Z,3.44
2023-02-05T11:10:41.688Z,3.46
2023-02-05T11:11:35.051Z,3.50
2023-02-05T11:12:40.449Z,3.54
2023-02-05T11:13:38.544Z,3.58
2023-02-05T11:14:34.936Z,3.58
2023-02-05T11:15:38.036Z,3.54
2023-02-05T11:16:36.149Z,3.50
2023-02-05T11:17:38.283Z,3.52
2023-02-05T11:18:35.190Z,3.36
2023-02-05T11:19:39.025Z,3.28
2023-02-05T11:22:06.684Z,3.30
2023-02-05T11:23:04.017Z,3.39
2023-02-05T11:24:04.777Z,3.42
2023-02-05T11:25:03.088Z,3.46
2023-02-05T11:26:04.430Z,3.47
2023-02-05T11:27:07.062Z,3.47
2023-02-05T11:28:04.482Z,3.46
2023-02-05T11:29:06.565Z,3.49
2023-02-05T11:30:02.606Z,3.49
2023-02-05T11:31:03.186Z,3.52
2023-02-05T11:32:03.243Z,3.52
2023-02-05T11:33:04.659Z,3.47
2023-02-05T11:34:03.944Z,3.49
2023-02-05T11:35:08.036Z,3.53
2023-02-05T11:36:03.972Z,3.52
2023-02-05T11:37:06.830Z,3.49
2023-02-05T11:38:24.891Z,3.49
2023-02-05T11:39:07.816Z,3.50
2023-02-05T11:40:03.764Z,3.57
2023-02-05T11:41:09.235Z,3.62
2023-02-05T11:42:06.843Z,3.65
2023-02-05T11:43:03.174Z,3.68
2023-02-05T11:44:03.169Z,3.68
2023-02-05T11:45:08.470Z,3.68
2023-02-05T11:46:05.319Z,3.68
2023-02-05T11:47:05.882Z,3.70
2023-02-05T11:48:02.994Z,3.75
2023-02-05T11:49:02.517Z,3.72
2023-02-05T11:50:02.720Z,3.72
2023-02-05T11:51:06.187Z,3.68
2023-02-05T11:52:08.820Z,3.68
2023-02-05T11:53:09.559Z,3.64
2023-02-05T11:54:10.189Z,3.64
2023-02-05T11:55:03.091Z,3.64
2023-02-05T11:56:01.560Z,3.64
2023-02-05T11:57:01.550Z,3.60
2023-02-05T11:58:06.577Z,3.61
2023-02-05T11:59:04.068Z,3.58
2023-02-05T12:00:02.306Z,3.57
2023-02-05T12:01:02.861Z,3.54
2023-02-05T12:02:05.993Z,3.52
2023-02-05T12:03:02.369Z,3.53
2023-02-05T12:04:06.290Z,3.50
2023-02-05T12:05:04.903Z,3.57
2023-02-05T12:06:04.544Z,3.58
2023-02-05T12:07:05.380Z,3.57
2023-02-05T12:08:04.889Z,3.58
2023-02-05T12:09:06.110Z,3.60
2023-02-05T12:10:13.052Z,3.60
2023-02-05T12:11:05.657Z,3.64
2023-02-05T12:12:05.040Z,3.65
2023-02-05T12:14:37.278Z,3.67
2023-02-05T12:15:39.420Z,3.65
2023-02-05T12:16:40.719Z,3.64
2023-02-05T12:17:41.893Z,3.68
2023-02-05T12:18:41.752Z,3.65
2023-02-05T12:19:40.920Z,3.68
2023-02-05T12:20:37.702Z,3.72
2023-02-05T12:21:42.143Z,3.76
2023-02-05T12:22:41.330Z,3.82
2023-02-05T12:23:41.629Z,3.83
2023-02-05T12:24:38.551Z,3.94
2023-02-05T12:25:37.718Z,4.00
2023-02-05T12:27:01.014Z,4.07
2023-02-05T12:27:36.823Z,4.14
2023-02-05T12:28:41.848Z,4.14
2023-02-05T12:29:38.258Z,4.15
2023-02-05T12:30:38.336Z,4.19
2023-02-05T12:31:36.790Z,4.22
2023-02-05T12:32:37.488Z,4.26
2023-02-05T12:33:41.590Z,4.29
2023-02-05T12:34:36.844Z,4.26
2023-02-05T12:35:39.585Z,4.24
2023-02-05T12:36:45.179Z,4.22
2023-02-05T12:37:38.391Z,4.19
2023-02-05T12:38:36.688Z,4.19
2023-02-05T12:39:36.800Z,4.21
2023-02-05T12:40:38.502Z,4.08
2023-02-05T12:41:37.340Z,4.07
2023-02-05T12:42:44.585Z,4.03
2023-02-05T12:43:37.510Z,3.98
2023-02-05T12:44:39.465Z,3.96
2023-02-05T12:45:40.248Z,3.96
2023-02-05T12:46:38.368Z,3.96
2023-02-05T12:47:38.520Z,4.03
2023-02-05T12:48:37.338Z,4.06
2023-02-05T12:49:44.951Z,4.04
2023-02-05T12:50:41.502Z,4.07
2023-02-05T12:51:41.010Z,4.10
2023-02-05T12:52:40.783Z,4.16
2023-02-05T12:53:40.926Z,4.19
2023-02-05T12:54:38.838Z,4.22
2023-02-05T12:55:38.921Z,4.22
2023-02-05T12:56:40.459Z,4.24
2023-02-05T12:57:43.585Z,4.26
2023-02-05T12:58:41.156Z,4.26
2023-02-05T12:59:41.054Z,4.28
2023-02-05T13:00:39.604Z,4.24
2023-02-05T13:01:43.691Z,4.21
2023-02-05T13:04:01.272Z,4.19
2023-02-05T13:04:55.893Z,4.22
2023-02-05T13:09:21.742Z,4.69
2023-02-05T13:10:20.275Z,4.83
2023-02-05T13:11:23.724Z,4.88
2023-02-05T13:12:24.332Z,4.98
2023-02-05T13:13:20.326Z,4.99
2023-02-05T13:14:24.817Z,4.91
2023-02-05T13:15:19.883Z,4.89
2023-02-05T13:16:24.152Z,4.92
2023-02-05T13:17:21.773Z,4.92
2023-02-05T13:22:19.050Z,4.64
2023-02-05T13:23:01.868Z,4.44
2023-02-05T13:23:59.486Z,4.40
2023-02-05T13:25:02.510Z,4.61
2023-02-05T13:25:54.492Z,4.96
2023-02-05T13:26:55.337Z,5.14
2023-02-05T13:27:52.437Z,5.25
2023-02-05T13:28:52.664Z,5.43
2023-02-05T13:29:51.900Z,5.57
2023-02-05T13:30:53.169Z,5.81
2023-02-05T13:31:57.040Z,5.92
2023-02-05T13:32:53.392Z,6.00
2023-02-05T13:33:54.949Z,6.01
2023-02-05T13:34:51.401Z,6.06
2023-02-05T13:37:53.132Z,6.13